Details From DAAG - Alger Houari Boumediene
To DAUH - OUED IRARA
Flight Number -
Tags generated
Created
Modified
Stats Distance 344 nm / 638 km
Max Altitude 35,000 ft / 10,668 m
Waypoints 5
Social Downloads 9
Likes 0
Share VATSIM

Download

Looking for another format? Having issues loading an existing format? Contact us
Advertisement - Login to hide

Notes

Basic altitude profile: - Ascent Rate: 2200ft/min - Ascent Speed: 170kts - Cruise Altitude: 190ft - Cruise Speed: 230kts - Descent Rate: 1500ft/min - Descent Speed: 230kts Options: - Use NATs: yes - Use PACOTS: yes - Use low airways: yes - Use high airways: yes

Route

DAAG BSA J36 TGU DAUH

ID Type Via Altitude (ft/m) Position (lat/lon) Dist (leg/tot) Name
O DAAG APT - 0 / 0 36.69752 / 3.21308 - / 0 nm Alger Houari Boumediene
BSA VOR - 31,600 / 9,632 35.51528 / 4.40167 91 / 91 nm BOU SAADA VOR-DME
MAHDI FIX J36 (AWY-HI) 35,000 / 10,668 34.61667 / 5.00000 61 / 152 nm
TGU VOR J36 (AWY-HI) 17,800 / 5,425 33.05694 / 6.08861 108 / 261 nm TOUGGOURT VOR-DME
O DAUH APT - 0 / 0 31.67290 / 6.14046 83 / 344 nm OUED IRARA

Altitude Profile

Advertisement - Login to hide

Weather


0- 5 10 15 20 25 30 35+ Temperature / °C

Clouds and Precipitation
Forecast for 2018-10-18 06:00 UTC. Updated 5 hours ago

Ground ~20,000 ft ~40,000 ft Winds

DAAG

Details ICAO DAAG (ALG)
Name Alger Houari Boumediene
Region Algeria
Timezone Africa/Algiers (UTC+1.0)
Stats Elevation 82 ft / 25 m (AMSL)
Location 36.697500° 3.213080°
Runways 2
Magnetic Variation 1.143° E

METAR

DAAG 180830Z 27008KT 9999 SCT020TCU FEW026CB BKN040 19/17 Q1008

Decode

TAF

TAF DAAG 180500Z 1806/1906 24006KT 9999 FEW020 BKN080 TEMPO 1806/1812 FEW020TCU FEW026CB BECMG 1810/1813 32014KT BECMG 1818/1821 VRB02KT

Decode

Departure Runways

ID Width Length Bearing (true/mag) Surface Threshold Overrun Markings Lighting
05 197 ft / 60 m 11,459 ft / 3,493 m 52.87° / 51.73° ASPHALT 0 ft / 0 m 0 ft / 0 m PREC-APP EDGE THRESHOLD
09 148 ft / 45 m 11,442 ft / 3,487 m 91.75° / 90.61° ASPHALT 0 ft / 0 m 1,017 ft / 310 m PREC-APP EDGE THRESHOLD
23 197 ft / 60 m 11,459 ft / 3,493 m 232.89° / 231.75° ASPHALT 0 ft / 0 m 0 ft / 0 m PREC-APP EDGE THRESHOLD
27 148 ft / 45 m 11,442 ft / 3,487 m 271.78° / 270.63° ASPHALT 0 ft / 0 m 0 ft / 0 m PREC-APP EDGE THRESHOLD

DAUH

Details ICAO DAUH (HME)
Name OUED IRARA
Region Algeria
Timezone Africa/Algiers (UTC+1.0)
Stats Elevation 463 ft / 141 m (AMSL)
Location 31.672900° 6.140460°
Runways 1
Magnetic Variation 1.496° E

METAR

DAUH 180830Z 28005KT CAVOK 20/12 Q1008

Decode

TAF

TAF TAF DAUH 180500Z 1806/1906 30010KT 8000 NSC PROB30 TEMPO 1807/1812 4000 HZ BECMG 1818/1821 VRB02KT

Decode

Destination Runways

ID Width Length Bearing (true/mag) Surface Threshold Overrun Markings Lighting
18 148 ft / 45 m 9,952 ft / 3,034 m 184.21° / 182.71° ASPHALT 0 ft / 0 m 328 ft / 100 m APP EDGE THRESHOLD
36 148 ft / 45 m 9,952 ft / 3,034 m 4.20° / 2.71° ASPHALT 0 ft / 0 m 328 ft / 100 m APP EDGE THRESHOLD

Popular Alternatives